Time;durP1;ratioP1;P1;durP2;ratioP2;P2;SDS_P1;SDS_P2;PMS_P1;PMS_P2;Temp;Humidity;BMP_temperature;BMP_pressure;BME280_temperature;BME280_humidity;BME280_pressure;Samples;Min_cycle;Max_cycle;Signal;HPM_P1;HPM_P2
2021/01/19 00:01:52;;;;;;;0.10;0.10;;;;;;;;;;5060122;28;20283;-61
2021/01/19 00:04:19;;;;;;;0.00;0.00;;;;;;;;;;5060051;28;20589;-62
2021/01/19 00:06:46;;;;;;;0.50;0.47;;;;;;;;;;5060859;28;20186;-65
2021/01/19 00:09:18;;;;;;;4.27;0.70;;;;;;;;;;5065211;28;20214;-62
2021/01/19 00:11:45;;;;;;;0.27;0.13;;;;;;;;;;5063798;28;20576;-62
2021/01/19 00:14:12;;;;;;;0.10;0.10;;;;;;;;;;5055546;28;20186;-62
2021/01/19 00:16:38;;;;;;;0.00;0.00;;;;;;;;;;5062881;28;20517;-61
2021/01/19 00:22:08;;;;;;;0.00;0.00;;;;;;;;;;5074689;28;20186;-61
2021/01/19 00:36:50;;;;;;;3.80;1.70;;;;;;;;;;5095097;28;20173;-60
2021/01/19 00:39:16;;;;;;;0.00;0.00;;;;;;;;;;5070976;28;20185;-61
2021/01/19 00:41:43;;;;;;;0.10;0.10;;;;;;;;;;5054335;28;20616;-64
2021/01/19 00:44:10;;;;;;;0.00;0.00;;;;;;;;;;5050753;28;20179;-63
2021/01/19 00:46:37;;;;;;;0.00;0.00;;;;;;;;;;5053617;28;20203;-64
2021/01/19 00:49:04;;;;;;;1.03;1.03;;;;;;;;;;5059303;28;20221;-63
2021/01/19 00:51:36;;;;;;;0.00;0.00;;;;;;;;;;5056624;28;20182;-62
2021/01/19 00:54:03;;;;;;;0.00;0.00;;;;;;;;;;5048836;28;20284;-64
2021/01/19 00:56:41;;;;;;;0.00;0.00;;;;;;;;;;5059058;28;20194;-61
2021/01/19 00:59:09;;;;;;;0.00;0.00;;;;;;;;;;5043796;28;20250;-62
2021/01/19 01:01:43;;;;;;;0.00;0.00;;;;;;;;;;5060061;28;20674;-61
2021/01/19 01:04:10;;;;;;;0.00;0.00;;;;;;;;;;5055498;28;20186;-62
2021/01/19 01:06:37;;;;;;;0.00;0.00;;;;;;;;;;5048059;28;20170;-61
2021/01/19 01:09:04;;;;;;;0.00;0.00;;;;;;;;;;5060073;28;20229;-62
2021/01/19 01:11:37;;;;;;;0.67;0.13;;;;;;;;;;5061184;28;20208;-61
2021/01/19 01:14:04;;;;;;;0.00;0.00;;;;;;;;;;5056905;28;20213;-63
2021/01/19 01:16:30;;;;;;;0.10;0.10;;;;;;;;;;5053138;28;20171;-61
2021/01/19 01:19:05;;;;;;;0.00;0.00;;;;;;;;;;5066361;28;20174;-60
2021/01/19 01:21:50;;;;;;;0.00;0.00;;;;;;;;;;5062491;28;20184;-60
2021/01/19 01:27:20;;;;;;;0.00;0.00;;;;;;;;;;5053845;28;20254;-61
2021/01/19 01:29:46;;;;;;;0.10;0.10;;;;;;;;;;5054293;28;20663;-61
2021/01/19 01:32:13;;;;;;;0.00;0.00;;;;;;;;;;5058657;28;20546;-64
2021/01/19 01:34:40;;;;;;;0.10;0.10;;;;;;;;;;5067101;28;20189;-62
2021/01/19 01:37:07;;;;;;;0.00;0.00;;;;;;;;;;5054217;28;20178;-61
2021/01/19 01:39:34;;;;;;;0.00;0.00;;;;;;;;;;5056717;28;20661;-61
2021/01/19 01:42:02;;;;;;;0.40;0.40;;;;;;;;;;5059910;28;20231;-62
2021/01/19 01:44:29;;;;;;;0.00;0.00;;;;;;;;;;5051101;28;20579;-60
2021/01/19 01:46:55;;;;;;;0.00;0.00;;;;;;;;;;5056525;28;20233;-62
2021/01/19 01:49:23;;;;;;;0.00;0.00;;;;;;;;;;5058138;28;20223;-63
2021/01/19 01:51:50;;;;;;;0.03;0.03;;;;;;;;;;5057189;28;20188;-62
2021/01/19 01:54:36;;;;;;;0.00;0.00;;;;;;;;;;5054358;28;20198;-60
2021/01/19 01:57:09;;;;;;;3.00;0.50;;;;;;;;;;5070855;28;20289;-61
2021/01/19 02:02:49;;;;;;;0.00;0.00;;;;;;;;;;5051423;28;20260;-61
2021/01/19 02:05:16;;;;;;;0.00;0.00;;;;;;;;;;5049837;28;20567;-63
2021/01/19 02:08:02;;;;;;;0.10;0.10;;;;;;;;;;5049084;28;20279;-64
2021/01/19 02:10:56;;;;;;;0.00;0.00;;;;;;;;;;5036234;28;20194;-61
2021/01/19 02:13:47;;;;;;;0.10;0.10;;;;;;;;;;5041668;28;20333;-61
2021/01/19 02:22:25;;;;;;;0.00;0.00;;;;;;;;;;5080039;28;20283;-61
2021/01/19 02:25:10;;;;;;;0.00;0.00;;;;;;;;;;5052971;28;20197;-60
2021/01/19 02:30:40;;;;;;;0.00;0.00;;;;;;;;;;5053096;28;20207;-63
2021/01/19 02:33:16;;;;;;;0.00;0.00;;;;;;;;;;5045595;28;20246;-62
2021/01/19 02:36:03;;;;;;;0.20;0.20;;;;;;;;;;5063327;28;20265;-62
2021/01/19 02:38:36;;;;;;;0.00;0.00;;;;;;;;;;5060353;28;20298;-63
2021/01/19 02:41:03;;;;;;;0.00;0.00;;;;;;;;;;5045525;28;20193;-61
2021/01/19 02:43:30;;;;;;;0.20;0.20;;;;;;;;;;5045602;28;20511;-61
2021/01/19 02:45:57;;;;;;;0.60;0.60;;;;;;;;;;5049918;28;20658;-61
2021/01/19 02:48:24;;;;;;;0.33;0.33;;;;;;;;;;5050502;28;20237;-63
2021/01/19 02:50:51;;;;;;;0.10;0.10;;;;;;;;;;5041538;28;20685;-61
2021/01/19 02:53:19;;;;;;;0.23;0.23;;;;;;;;;;5045100;28;20193;-61
2021/01/19 02:55:46;;;;;;;0.00;0.00;;;;;;;;;;5041604;28;20198;-61
2021/01/19 02:58:19;;;;;;;0.70;0.70;;;;;;;;;;5044723;28;20273;-61
2021/01/19 03:00:56;;;;;;;0.10;0.10;;;;;;;;;;5045746;28;20191;-62
2021/01/19 03:03:23;;;;;;;0.73;0.67;;;;;;;;;;5052981;28;20189;-63
2021/01/19 03:05:50;;;;;;;0.00;0.00;;;;;;;;;;5044414;28;20175;-63
2021/01/19 03:08:18;;;;;;;0.10;0.10;;;;;;;;;;5056007;28;20229;-62
2021/01/19 03:10:44;;;;;;;0.20;0.17;;;;;;;;;;5050904;28;20209;-64
2021/01/19 03:13:12;;;;;;;0.30;0.30;;;;;;;;;;5053152;28;20611;-61
2021/01/19 03:15:39;;;;;;;0.00;0.00;;;;;;;;;;5058577;28;20259;-61
2021/01/19 03:18:07;;;;;;;1.43;0.30;;;;;;;;;;5056108;28;20707;-60
2021/01/19 03:20:34;;;;;;;1.90;0.20;;;;;;;;;;5058354;28;20185;-62
2021/01/19 03:23:01;;;;;;;0.00;0.00;;;;;;;;;;5059819;28;20303;-61
2021/01/19 03:25:42;;;;;;;0.00;0.00;;;;;;;;;;5060566;28;20186;-61
2021/01/19 03:28:09;;;;;;;0.00;0.00;;;;;;;;;;5056390;28;20222;-61
2021/01/19 03:30:35;;;;;;;3.40;1.13;;;;;;;;;;5059052;28;20182;-62
2021/01/19 03:33:02;;;;;;;0.00;0.00;;;;;;;;;;5058662;28;20197;-61
2021/01/19 03:35:28;;;;;;;0.00;0.00;;;;;;;;;;5059265;28;20183;-62
2021/01/19 03:37:56;;;;;;;3.63;1.90;;;;;;;;;;5058055;28;20794;-61
2021/01/19 03:40:22;;;;;;;0.00;0.00;;;;;;;;;;5058699;28;20189;-63
2021/01/19 03:43:08;;;;;;;0.00;0.00;;;;;;;;;;5060426;28;20361;-61
2021/01/19 03:45:35;;;;;;;0.00;0.00;;;;;;;;;;5056584;28;20202;-60
2021/01/19 03:48:02;;;;;;;0.77;0.77;;;;;;;;;;5058477;28;20221;-60
2021/01/19 03:50:29;;;;;;;0.00;0.00;;;;;;;;;;5059456;28;20702;-60
2021/01/19 03:52:56;;;;;;;0.00;0.00;;;;;;;;;;5060121;28;20527;-60
2021/01/19 03:55:22;;;;;;;0.00;0.00;;;;;;;;;;5060550;28;20182;-62
2021/01/19 03:57:49;;;;;;;0.30;0.30;;;;;;;;;;5055268;28;20664;-62
2021/01/19 04:00:16;;;;;;;0.10;0.10;;;;;;;;;;5058529;28;20197;-60
2021/01/19 04:02:43;;;;;;;0.00;0.00;;;;;;;;;;5059321;28;20185;-61
2021/01/19 04:05:09;;;;;;;0.00;0.00;;;;;;;;;;5057171;28;20191;-60
2021/01/19 04:07:40;;;;;;;0.43;0.30;;;;;;;;;;5065135;28;20264;-60
2021/01/19 04:10:14;;;;;;;0.00;0.00;;;;;;;;;;5058925;28;20272;-60
2021/01/19 04:12:42;;;;;;;0.00;0.00;;;;;;;;;;5059812;28;20186;-60
2021/01/19 14:11:25;;;;;;;0.70;0.70;;;;;;;;;;5110787;27;20578;-63
2021/01/19 14:13:56;;;;;;;0.10;0.10;;;;;;;;;;5115377;28;20265;-62
2021/01/19 14:16:35;;;;;;;0.20;0.20;;;;;;;;;;5123937;28;20173;-61
2021/01/19 14:19:02;;;;;;;0.10;0.10;;;;;;;;;;5113875;28;20199;-62
2021/01/19 14:21:29;;;;;;;0.10;0.10;;;;;;;;;;5109717;28;20178;-62
2021/01/19 14:23:56;;;;;;;1.33;1.23;;;;;;;;;;5114750;28;20265;-62
2021/01/19 14:26:23;;;;;;;0.10;0.10;;;;;;;;;;5114227;28;20178;-62
2021/01/19 14:28:50;;;;;;;5.30;1.53;;;;;;;;;;5117941;28;20205;-64
2021/01/19 14:31:17;;;;;;;0.10;0.10;;;;;;;;;;5121163;28;20173;-62
2021/01/19 14:33:43;;;;;;;1.33;1.23;;;;;;;;;;5116894;28;20332;-62
2021/01/19 14:36:10;;;;;;;0.13;0.13;;;;;;;;;;5115120;28;20169;-63
2021/01/19 14:38:37;;;;;;;1.03;0.80;;;;;;;;;;5116727;28;20177;-62
2021/01/19 14:41:05;;;;;;;11.63;2.43;;;;;;;;;;5119932;28;20182;-63
2021/01/19 14:43:32;;;;;;;0.10;0.10;;;;;;;;;;5113069;28;20174;-62
2021/01/19 14:45:59;;;;;;;1.70;0.90;;;;;;;;;;5114383;28;20182;-62
2021/01/19 14:48:26;;;;;;;2.43;0.60;;;;;;;;;;5110774;28;20201;-64
2021/01/19 14:50:53;;;;;;;0.07;0.07;;;;;;;;;;5108813;28;20241;-63
2021/01/19 14:53:20;;;;;;;2.70;0.50;;;;;;;;;;5111973;28;20231;-63
2021/01/19 14:55:47;;;;;;;0.73;0.40;;;;;;;;;;5115022;28;20254;-61
2021/01/19 14:58:14;;;;;;;0.20;0.20;;;;;;;;;;5109522;28;20176;-62
2021/01/19 15:00:46;;;;;;;7.63;1.03;;;;;;;;;;5118640;27;20173;-61
2021/01/19 15:03:13;;;;;;;0.87;0.43;;;;;;;;;;5118228;28;20615;-61
2021/01/19 15:05:43;;;;;;;0.10;0.10;;;;;;;;;;5107464;28;20224;-64
2021/01/19 15:08:09;;;;;;;0.10;0.10;;;;;;;;;;5108377;28;20601;-62
2021/01/19 15:10:36;;;;;;;0.63;0.63;;;;;;;;;;5102545;28;20549;-63
2021/01/19 15:13:02;;;;;;;0.20;0.20;;;;;;;;;;5109624;28;20180;-61
2021/01/19 15:15:29;;;;;;;0.33;0.33;;;;;;;;;;5111335;28;20727;-62
2021/01/19 15:17:56;;;;;;;2.73;1.37;;;;;;;;;;5112222;28;20199;-63
2021/01/19 15:20:22;;;;;;;0.70;0.63;;;;;;;;;;5107936;28;20591;-62
2021/01/19 15:23:04;;;;;;;0.10;0.10;;;;;;;;;;5095263;28;20185;-63
2021/01/19 15:25:38;;;;;;;0.10;0.10;;;;;;;;;;5102776;28;20520;-61
2021/01/19 15:31:17;;;;;;;0.10;0.10;;;;;;;;;;5096277;28;20691;-61
2021/01/19 15:33:44;;;;;;;0.30;0.30;;;;;;;;;;5095703;28;20184;-63
2021/01/19 15:36:18;;;;;;;2.10;0.93;;;;;;;;;;5088475;28;20973;-63
2021/01/19 15:38:46;;;;;;;0.17;0.13;;;;;;;;;;5104425;27;20211;-61
2021/01/19 15:41:19;;;;;;;0.10;0.10;;;;;;;;;;5087886;28;20527;-61
2021/01/19 15:43:51;;;;;;;0.70;0.70;;;;;;;;;;5089344;28;20174;-62
2021/01/19 15:46:28;;;;;;;0.97;0.80;;;;;;;;;;5097092;28;20235;-62
2021/01/19 15:48:55;;;;;;;0.10;0.10;;;;;;;;;;5089886;28;20796;-61
2021/01/19 15:51:21;;;;;;;0.10;0.10;;;;;;;;;;5091862;28;20178;-63
2021/01/19 15:53:48;;;;;;;0.23;0.23;;;;;;;;;;5102260;28;20162;-63
2021/01/19 15:56:32;;;;;;;0.10;0.10;;;;;;;;;;5099735;28;20177;-64
2021/01/19 15:58:59;;;;;;;3.40;1.07;;;;;;;;;;5093242;28;20182;-62
2021/01/19 16:01:26;;;;;;;0.30;0.30;;;;;;;;;;5090671;28;20179;-62
2021/01/19 16:03:54;;;;;;;0.20;0.20;;;;;;;;;;5090211;28;20208;-61
2021/01/19 16:06:21;;;;;;;1.90;0.57;;;;;;;;;;5095877;28;20178;-62
2021/01/19 16:08:47;;;;;;;0.20;0.20;;;;;;;;;;5100453;28;20444;-62
2021/01/19 16:11:14;;;;;;;0.50;0.40;;;;;;;;;;5071219;28;20267;-61
2021/01/19 16:13:41;;;;;;;0.37;0.37;;;;;;;;;;5095531;28;20520;-61
2021/01/19 16:16:08;;;;;;;1.40;0.47;;;;;;;;;;5092480;28;20192;-59
2021/01/19 16:18:35;;;;;;;1.40;0.77;;;;;;;;;;5091584;28;20692;-60
2021/01/19 16:24:20;;;;;;;0.50;0.50;;;;;;;;;;5111756;28;20187;-61
2021/01/19 16:29:50;;;;;;;0.10;0.10;;;;;;;;;;5096834;27;20316;-59
2021/01/19 16:32:17;;;;;;;0.10;0.10;;;;;;;;;;5093815;28;20174;-60
2021/01/19 16:34:43;;;;;;;1.73;0.63;;;;;;;;;;5092864;28;20695;-60
2021/01/19 16:37:13;;;;;;;5.40;4.63;;;;;;;;;;5095223;28;20204;-60
2021/01/19 16:39:40;;;;;;;0.40;0.20;;;;;;;;;;5093716;28;20214;-61
2021/01/19 16:42:07;;;;;;;0.80;0.53;;;;;;;;;;5094365;28;20197;-59
2021/01/19 16:44:34;;;;;;;0.10;0.10;;;;;;;;;;5094036;28;20196;-63
2021/01/19 16:47:01;;;;;;;5.10;1.60;;;;;;;;;;5097014;28;20313;-59
2021/01/19 16:49:27;;;;;;;0.20;0.20;;;;;;;;;;5103177;27;20409;-59
2021/01/19 16:51:54;;;;;;;0.00;0.00;;;;;;;;;;5094603;28;20185;-59
2021/01/19 16:54:21;;;;;;;7.83;0.60;;;;;;;;;;5096732;28;20197;-60
2021/01/19 16:56:47;;;;;;;0.10;0.10;;;;;;;;;;5095191;28;20635;-59
2021/01/19 16:59:14;;;;;;;0.00;0.00;;;;;;;;;;5098552;28;20177;-61
2021/01/19 17:07:48;;;;;;;0.10;0.10;;;;;;;;;;5110975;28;20612;-60
2021/01/19 17:10:36;;;;;;;0.00;0.00;;;;;;;;;;5106298;28;20331;-61
2021/01/19 17:16:06;;;;;;;0.10;0.10;;;;;;;;;;5114647;28;20249;-60
2021/01/19 17:21:20;;;;;;;2.03;0.47;;;;;;;;;;5086476;28;20297;-61
2021/01/19 17:23:47;;;;;;;0.20;0.20;;;;;;;;;;5085954;28;20212;-62
2021/01/19 17:29:17;;;;;;;0.20;0.20;;;;;;;;;;5099647;28;20205;-62
2021/01/19 17:31:44;;;;;;;0.10;0.10;;;;;;;;;;5095548;28;20648;-61
2021/01/19 17:34:15;;;;;;;12.37;2.67;;;;;;;;;;5083728;28;20174;-60
2021/01/19 17:36:41;;;;;;;0.60;0.60;;;;;;;;;;5095650;28;20167;-61
2021/01/19 17:39:08;;;;;;;0.13;0.13;;;;;;;;;;5103284;28;20643;-62
2021/01/19 17:44:56;;;;;;;0.10;0.10;;;;;;;;;;5092469;28;20169;-59
2021/01/19 17:50:26;;;;;;;4.60;0.47;;;;;;;;;;5093631;28;20764;-60
2021/01/19 17:53:08;;;;;;;1.80;1.70;;;;;;;;;;5093867;28;20181;-61
2021/01/19 17:55:35;;;;;;;0.43;0.40;;;;;;;;;;5089092;28;20177;-63
2021/01/19 17:58:01;;;;;;;0.50;0.37;;;;;;;;;;5089605;28;20174;-61
2021/01/19 18:00:28;;;;;;;1.20;0.63;;;;;;;;;;5083988;28;20819;-61
2021/01/19 18:02:55;;;;;;;0.10;0.10;;;;;;;;;;5083613;28;20193;-61
2021/01/19 18:05:23;;;;;;;2.43;0.67;;;;;;;;;;5097235;28;20181;-61
2021/01/19 18:07:51;;;;;;;0.13;0.13;;;;;;;;;;5098019;28;20174;-62
2021/01/19 18:10:29;;;;;;;0.30;0.30;;;;;;;;;;5091266;28;20241;-61
2021/01/19 18:12:55;;;;;;;0.27;0.27;;;;;;;;;;5086536;28;20272;-62
2021/01/19 18:15:23;;;;;;;0.10;0.10;;;;;;;;;;5093105;28;20659;-61
2021/01/19 18:18:19;;;;;;;0.33;0.33;;;;;;;;;;5097733;28;20174;-60
2021/01/19 18:26:52;;;;;;;0.23;0.23;;;;;;;;;;5092454;28;20181;-61
2021/01/19 18:32:22;;;;;;;2.37;0.93;;;;;;;;;;5109884;28;20203;-60
2021/01/19 18:37:52;;;;;;;0.10;0.10;;;;;;;;;;5113583;28;20180;-60
2021/01/19 18:40:19;;;;;;;0.10;0.10;;;;;;;;;;5108783;28;20188;-63
2021/01/19 18:42:45;;;;;;;0.10;0.10;;;;;;;;;;5090923;28;20248;-62
2021/01/19 18:45:12;;;;;;;0.57;0.57;;;;;;;;;;5082670;28;20220;-62
2021/01/19 18:47:45;;;;;;;0.50;0.50;;;;;;;;;;5095313;28;20178;-63
2021/01/19 18:53:15;;;;;;;0.13;0.13;;;;;;;;;;5106598;28;20261;-62
2021/01/19 18:58:48;;;;;;;0.40;0.40;;;;;;;;;;5116847;28;20188;-60
2021/01/19 19:10:25;;;;;;;0.67;0.20;;;;;;;;;;5108491;28;20228;-61
2021/01/19 19:13:13;;;;;;;0.60;0.60;;;;;;;;;;5117108;28;20253;-60
2021/01/19 19:15:40;;;;;;;1.23;0.13;;;;;;;;;;5104449;28;20191;-63
2021/01/19 19:27:17;;;;;;;0.40;0.40;;;;;;;;;;5116777;28;20168;-61
2021/01/19 19:29:43;;;;;;;3.20;0.27;;;;;;;;;;5112387;28;20255;-62
2021/01/19 19:32:10;;;;;;;0.10;0.10;;;;;;;;;;5097863;28;20228;-63
2021/01/19 19:34:37;;;;;;;3.60;3.30;;;;;;;;;;5089979;28;20182;-61
2021/01/19 19:37:04;;;;;;;2.13;0.57;;;;;;;;;;5084983;28;20280;-61
2021/01/19 19:39:31;;;;;;;0.10;0.10;;;;;;;;;;5085395;28;20236;-62
2021/01/19 19:41:59;;;;;;;0.10;0.10;;;;;;;;;;5096999;28;20173;-61
2021/01/19 19:44:29;;;;;;;0.03;0.03;;;;;;;;;;5102011;28;20366;-62
2021/01/19 19:47:12;;;;;;;0.07;0.07;;;;;;;;;;5113906;27;20178;-60
2021/01/19 19:52:55;;;;;;;0.00;0.00;;;;;;;;;;5094238;28;20301;-61
2021/01/19 19:58:33;;;;;;;0.30;0.30;;;;;;;;;;5111704;28;20181;-60
2021/01/19 20:01:21;;;;;;;2.83;0.90;;;;;;;;;;5092172;28;20652;-61
2021/01/19 20:03:47;;;;;;;1.50;0.87;;;;;;;;;;5095275;28;20273;-62
2021/01/19 20:06:14;;;;;;;0.93;0.93;;;;;;;;;;5091697;28;20179;-62
2021/01/19 20:08:43;;;;;;;0.60;0.50;;;;;;;;;;5099691;27;20297;-65
2021/01/19 20:11:14;;;;;;;1.17;1.07;;;;;;;;;;5097763;27;20233;-61
2021/01/19 20:13:40;;;;;;;0.70;0.70;;;;;;;;;;5097556;27;20687;-65
2021/01/19 20:16:08;;;;;;;0.10;0.10;;;;;;;;;;5093214;28;20181;-63
2021/01/19 20:18:34;;;;;;;1.80;0.40;;;;;;;;;;5099097;28;20196;-64
2021/01/19 20:21:01;;;;;;;0.50;0.50;;;;;;;;;;5102368;28;20192;-63
2021/01/19 20:23:29;;;;;;;0.57;0.13;;;;;;;;;;5093780;28;20527;-64
2021/01/19 20:25:55;;;;;;;1.50;0.60;;;;;;;;;;5099259;28;20190;-64
2021/01/19 20:28:23;;;;;;;0.27;0.27;;;;;;;;;;5097169;28;20605;-63
2021/01/19 20:30:50;;;;;;;0.10;0.10;;;;;;;;;;5100900;27;20266;-63
2021/01/19 20:33:16;;;;;;;0.10;0.10;;;;;;;;;;5094650;28;20184;-63
2021/01/19 20:35:44;;;;;;;0.10;0.10;;;;;;;;;;5097172;28;20386;-64
2021/01/19 20:38:12;;;;;;;0.67;0.67;;;;;;;;;;5100099;28;20748;-64
2021/01/19 20:40:41;;;;;;;0.00;0.00;;;;;;;;;;5100894;27;20189;-62
2021/01/19 20:43:07;;;;;;;0.10;0.10;;;;;;;;;;5092971;28;20174;-60
2021/01/19 20:45:34;;;;;;;4.27;0.47;;;;;;;;;;5092631;28;20667;-63
2021/01/19 20:48:01;;;;;;;3.10;1.27;;;;;;;;;;5084492;28;20585;-64
2021/01/19 20:56:40;;;;;;;0.30;0.10;;;;;;;;;;5081485;28;20620;-63
2021/01/19 20:59:07;;;;;;;2.13;0.30;;;;;;;;;;5063067;28;20780;-62
2021/01/19 21:01:34;;;;;;;0.10;0.10;;;;;;;;;;5066395;28;20206;-62
2021/01/19 21:04:01;;;;;;;0.10;0.10;;;;;;;;;;5077885;28;20561;-64
2021/01/19 21:06:28;;;;;;;0.20;0.20;;;;;;;;;;5078010;28;20623;-61
2021/01/19 21:08:55;;;;;;;1.20;0.73;;;;;;;;;;5074434;28;20179;-64
2021/01/19 21:11:22;;;;;;;0.03;0.03;;;;;;;;;;5074633;28;20237;-62
2021/01/19 21:13:49;;;;;;;1.07;0.57;;;;;;;;;;5073719;28;20187;-65
2021/01/19 21:16:16;;;;;;;0.00;0.00;;;;;;;;;;5068148;28;20183;-63
2021/01/19 21:18:43;;;;;;;0.70;0.70;;;;;;;;;;5080929;28;20227;-64
2021/01/19 21:21:09;;;;;;;0.20;0.20;;;;;;;;;;5074131;28;20576;-64
2021/01/19 21:26:43;;;;;;;0.00;0.00;;;;;;;;;;5091005;28;20189;-63
2021/01/19 21:29:09;;;;;;;0.00;0.00;;;;;;;;;;5078022;28;20227;-64
2021/01/19 21:31:40;;;;;;;2.13;0.40;;;;;;;;;;5075217;28;20714;-64
2021/01/19 21:34:08;;;;;;;0.50;0.50;;;;;;;;;;5069400;28;20293;-66
2021/01/19 21:36:36;;;;;;;0.00;0.00;;;;;;;;;;5082284;28;20257;-64
2021/01/19 21:39:03;;;;;;;0.90;0.90;;;;;;;;;;5079881;28;20208;-63
2021/01/19 21:41:29;;;;;;;0.93;0.63;;;;;;;;;;5084078;28;20173;-64
2021/01/19 21:43:56;;;;;;;0.00;0.00;;;;;;;;;;5070212;28;20272;-62
2021/01/19 21:46:22;;;;;;;0.17;0.17;;;;;;;;;;5056823;28;20193;-63
2021/01/19 21:48:50;;;;;;;0.00;0.00;;;;;;;;;;5071669;28;20205;-62
2021/01/19 21:51:16;;;;;;;1.80;0.40;;;;;;;;;;5073906;28;20247;-64
2021/01/19 21:53:47;;;;;;;0.10;0.10;;;;;;;;;;5078623;28;20176;-62
2021/01/19 21:59:17;;;;;;;0.00;0.00;;;;;;;;;;5093501;28;20183;-61
2021/01/19 22:01:44;;;;;;;0.07;0.07;;;;;;;;;;5077231;28;20188;-62
2021/01/19 22:04:11;;;;;;;0.00;0.00;;;;;;;;;;5074418;28;20638;-63
2021/01/19 22:06:37;;;;;;;0.47;0.40;;;;;;;;;;5076184;28;20213;-62
2021/01/19 22:09:04;;;;;;;0.00;0.00;;;;;;;;;;5069472;28;20181;-63
2021/01/19 22:11:31;;;;;;;0.00;0.00;;;;;;;;;;5073257;28;20233;-63
2021/01/19 22:13:58;;;;;;;0.83;0.30;;;;;;;;;;5069190;28;20289;-62
2021/01/19 22:16:25;;;;;;;0.00;0.00;;;;;;;;;;5077141;28;20621;-64
2021/01/19 22:18:51;;;;;;;0.00;0.00;;;;;;;;;;5075261;28;20176;-62
2021/01/19 22:21:18;;;;;;;2.77;2.57;;;;;;;;;;5074539;28;20191;-62
2021/01/19 22:23:45;;;;;;;0.00;0.00;;;;;;;;;;5075168;28;20173;-63
2021/01/19 22:32:18;;;;;;;0.13;0.13;;;;;;;;;;5081376;28;20219;-63
2021/01/19 22:34:45;;;;;;;0.00;0.00;;;;;;;;;;5081434;28;20599;-64
2021/01/19 22:37:12;;;;;;;0.00;0.00;;;;;;;;;;5084164;28;20690;-63
2021/01/19 22:39:40;;;;;;;0.00;0.00;;;;;;;;;;5083094;28;20195;-65
2021/01/19 22:42:06;;;;;;;0.00;0.00;;;;;;;;;;5077895;28;20220;-64
2021/01/19 22:44:33;;;;;;;0.23;0.23;;;;;;;;;;5073407;28;20223;-64
2021/01/19 22:47:00;;;;;;;0.10;0.10;;;;;;;;;;5076476;28;20177;-62
2021/01/19 22:49:26;;;;;;;0.47;0.40;;;;;;;;;;5077586;28;20332;-63
2021/01/19 22:51:54;;;;;;;0.00;0.00;;;;;;;;;;5080604;28;20236;-63
2021/01/19 22:54:20;;;;;;;0.00;0.00;;;;;;;;;;5078249;28;20292;-63
2021/01/19 22:56:47;;;;;;;0.00;0.00;;;;;;;;;;5076991;28;20188;-65
2021/01/19 22:59:14;;;;;;;0.63;0.30;;;;;;;;;;5084057;28;20191;-62
2021/01/19 23:01:40;;;;;;;0.00;0.00;;;;;;;;;;5066329;28;20312;-64
2021/01/19 23:04:07;;;;;;;0.00;0.00;;;;;;;;;;5078518;28;20624;-64
2021/01/19 23:06:34;;;;;;;0.00;0.00;;;;;;;;;;5081459;28;20217;-62
2021/01/19 23:09:00;;;;;;;0.00;0.00;;;;;;;;;;5075599;28;20809;-63
2021/01/19 23:11:27;;;;;;;0.00;0.00;;;;;;;;;;5078403;28;20312;-63
2021/01/19 23:13:54;;;;;;;0.10;0.10;;;;;;;;;;5079429;28;20225;-63
2021/01/19 23:16:20;;;;;;;0.00;0.00;;;;;;;;;;5070352;28;20243;-65
2021/01/19 23:18:48;;;;;;;0.53;0.20;;;;;;;;;;5074533;28;20540;-63
2021/01/19 23:21:18;;;;;;;0.70;0.70;;;;;;;;;;5078128;28;20183;-65
2021/01/19 23:23:45;;;;;;;0.00;0.00;;;;;;;;;;5079731;28;20269;-65
2021/01/19 23:26:12;;;;;;;0.00;0.00;;;;;;;;;;5072762;28;20188;-64
2021/01/19 23:28:38;;;;;;;0.00;0.00;;;;;;;;;;5079347;28;20193;-64
2021/01/19 23:31:05;;;;;;;0.00;0.00;;;;;;;;;;5074898;28;20228;-64
2021/01/19 23:33:32;;;;;;;0.00;0.00;;;;;;;;;;5065695;28;20588;-64
2021/01/19 23:35:59;;;;;;;0.00;0.00;;;;;;;;;;5075477;28;20198;-65
2021/01/19 23:38:27;;;;;;;0.77;0.33;;;;;;;;;;5079650;28;20177;-65
2021/01/19 23:40:55;;;;;;;0.00;0.00;;;;;;;;;;5076827;28;20243;-64
2021/01/19 23:43:21;;;;;;;0.00;0.00;;;;;;;;;;5072407;28;20572;-64
2021/01/19 23:45:49;;;;;;;0.00;0.00;;;;;;;;;;5072254;28;20174;-64
2021/01/19 23:48:16;;;;;;;0.00;0.00;;;;;;;;;;5075023;28;20190;-64
2021/01/19 23:50:43;;;;;;;0.00;0.00;;;;;;;;;;5075446;28;20617;-64
2021/01/19 23:53:10;;;;;;;3.17;0.73;;;;;;;;;;5076125;28;20669;-64
2021/01/19 23:55:36;;;;;;;0.00;0.00;;;;;;;;;;5074392;28;20652;-64
2021/01/19 23:58:03;;;;;;;0.10;0.10;;;;;;;;;;5079598;28;20575;-65
